KBED/BED METAR and TAF weather

Enter ICAO airport designator
Station Type Date Time Source
KBED METAR 2019/08/25 13:56 UTC NOAA

KBED 251356Z 03012KT 10SM FEW021 BKN025 20/12 A3034 RMK AO2 SLP284 T02000117


Station Type Date Time Source
KBED Decoded METAR 2019/08/25 13:56 UTC NOAA

Station name not available
Aug 25, 2019 - 09:56 AM EDT / 2019.08.25 1356 UTC
Wind: from the NNE (030 degrees) at 14 MPH (12 KT):0
Visibility: 10 mile(s):0
Sky conditions: mostly cloudy
Temperature: 68.0 F (20.0 C)
Dew Point: 53.1 F (11.7 C)
Relative Humidity: 58%
Pressure (altimeter): 30.34 in. Hg (1027 hPa)
ob: KBED 251356Z 03012KT 10SM FEW021 BKN025 20/12 A3034 RMK AO2 SLP284 T02000117
cycle: 14

Station Type Date Time Source
KBED TAF 2019/08/25 13:15 UTC NOAA

TAF
AMD KBED 251311Z 2513/2612 04010G18KT P6SM SCT020
FM251700 05012G20KT P6SM SCT030
FM260200 04004KT P6SM SKC
FM260900 01004KT P6SM FEW025

Example: see airport list